sensor_id;sensor_type;location;lat;lon;timestamp;temperature;humidity
6752;DHT22;3413;47.680;9.166;2023-04-24T00:02:32;15.30;93.20
6752;DHT22;3413;47.680;9.166;2023-04-24T00:07:35;15.30;92.80
6752;DHT22;3413;47.680;9.166;2023-04-24T00:12:37;15.30;92.80
6752;DHT22;3413;47.680;9.166;2023-04-24T00:17:39;15.40;92.70
6752;DHT22;3413;47.680;9.166;2023-04-24T00:22:42;15.40;92.80
6752;DHT22;3413;47.680;9.166;2023-04-24T00:27:43;15.30;92.80
6752;DHT22;3413;47.680;9.166;2023-04-24T00:32:46;15.30;92.90
6752;DHT22;3413;47.680;9.166;2023-04-24T00:37:48;15.40;93.00
6752;DHT22;3413;47.680;9.166;2023-04-24T00:42:50;15.40;93.00
6752;DHT22;3413;47.680;9.166;2023-04-24T00:47:53;15.60;93.10
6752;DHT22;3413;47.680;9.166;2023-04-24T00:52:55;15.60;93.10
6752;DHT22;3413;47.680;9.166;2023-04-24T00:57:57;15.60;93.00
6752;DHT22;3413;47.680;9.166;2023-04-24T01:03:01;15.50;93.00
6752;DHT22;3413;47.680;9.166;2023-04-24T01:08:07;15.50;93.10
6752;DHT22;3413;47.680;9.166;2023-04-24T01:13:10;15.60;93.10
6752;DHT22;3413;47.680;9.166;2023-04-24T01:18:13;15.60;93.10
6752;DHT22;3413;47.680;9.166;2023-04-24T01:23:17;15.50;93.00
6752;DHT22;3413;47.680;9.166;2023-04-24T01:28:19;15.30;92.90
6752;DHT22;3413;47.680;9.166;2023-04-24T01:33:22;15.20;92.80
6752;DHT22;3413;47.680;9.166;2023-04-24T01:38:23;15.00;92.70
6752;DHT22;3413;47.680;9.166;2023-04-24T01:43:27;14.90;92.70
6752;DHT22;3413;47.680;9.166;2023-04-24T01:48:32;14.80;92.60
6752;DHT22;3413;47.680;9.166;2023-04-24T01:53:35;14.70;92.60
6752;DHT22;3413;47.680;9.166;2023-04-24T01:58:37;14.50;92.50
6752;DHT22;3413;47.680;9.166;2023-04-24T02:03:39;14.40;92.50
6752;DHT22;3413;47.680;9.166;2023-04-24T02:08:41;14.40;92.50
6752;DHT22;3413;47.680;9.166;2023-04-24T02:13:43;14.40;92.40
6752;DHT22;3413;47.680;9.166;2023-04-24T02:18:45;14.40;92.40
6752;DHT22;3413;47.680;9.166;2023-04-24T02:23:47;14.40;92.40
6752;DHT22;3413;47.680;9.166;2023-04-24T02:28:49;14.40;92.40
6752;DHT22;3413;47.680;9.166;2023-04-24T02:33:51;14.40;92.50
6752;DHT22;3413;47.680;9.166;2023-04-24T02:38:53;14.30;92.40
6752;DHT22;3413;47.680;9.166;2023-04-24T02:43:55;14.20;92.40
6752;DHT22;3413;47.680;9.166;2023-04-24T02:48:57;14.10;92.30
6752;DHT22;3413;47.680;9.166;2023-04-24T02:53:59;14.10;92.30
6752;DHT22;3413;47.680;9.166;2023-04-24T02:59:01;14.00;92.30
6752;DHT22;3413;47.680;9.166;2023-04-24T03:04:03;13.90;92.30
6752;DHT22;3413;47.680;9.166;2023-04-24T03:09:05;14.00;92.30
6752;DHT22;3413;47.680;9.166;2023-04-24T03:14:07;14.10;92.50
6752;DHT22;3413;47.680;9.166;2023-04-24T03:19:12;14.10;92.50
6752;DHT22;3413;47.680;9.166;2023-04-24T03:24:32;14.10;92.50
6752;DHT22;3413;47.680;9.166;2023-04-24T03:29:34;14.20;92.50
6752;DHT22;3413;47.680;9.166;2023-04-24T03:34:37;14.20;92.30
6752;DHT22;3413;47.680;9.166;2023-04-24T03:39:40;14.10;92.30
6752;DHT22;3413;47.680;9.166;2023-04-24T03:44:42;14.00;92.30
6752;DHT22;3413;47.680;9.166;2023-04-24T03:49:44;14.00;92.30
6752;DHT22;3413;47.680;9.166;2023-04-24T03:54:46;13.90;92.30
6752;DHT22;3413;47.680;9.166;2023-04-24T03:59:48;13.70;92.20
6752;DHT22;3413;47.680;9.166;2023-04-24T04:04:52;13.80;92.30
6752;DHT22;3413;47.680;9.166;2023-04-24T04:09:55;13.70;92.20
6752;DHT22;3413;47.680;9.166;2023-04-24T04:14:58;13.70;92.30
6752;DHT22;3413;47.680;9.166;2023-04-24T04:20:00;13.80;92.30
6752;DHT22;3413;47.680;9.166;2023-04-24T04:25:04;13.70;92.20
6752;DHT22;3413;47.680;9.166;2023-04-24T04:30:07;13.70;92.20
6752;DHT22;3413;47.680;9.166;2023-04-24T04:35:26;13.80;92.20
6752;DHT22;3413;47.680;9.166;2023-04-24T04:40:28;13.80;92.10
6752;DHT22;3413;47.680;9.166;2023-04-24T04:45:37;13.80;92.10
6752;DHT22;3413;47.680;9.166;2023-04-24T04:51:12;13.80;92.20
6752;DHT22;3413;47.680;9.166;2023-04-24T04:56:15;13.90;92.20
6752;DHT22;3413;47.680;9.166;2023-04-24T05:01:20;13.90;92.20
6752;DHT22;3413;47.680;9.166;2023-04-24T05:06:24;13.90;92.20
6752;DHT22;3413;47.680;9.166;2023-04-24T05:11:29;14.00;92.30
6752;DHT22;3413;47.680;9.166;2023-04-24T05:16:33;14.00;92.30
6752;DHT22;3413;47.680;9.166;2023-04-24T05:21:36;13.90;92.20
6752;DHT22;3413;47.680;9.166;2023-04-24T05:26:41;13.80;92.20
6752;DHT22;3413;47.680;9.166;2023-04-24T05:31:53;13.70;92.10
6752;DHT22;3413;47.680;9.166;2023-04-24T05:36:57;13.60;92.00
6752;DHT22;3413;47.680;9.166;2023-04-24T05:42:03;13.40;92.00
6752;DHT22;3413;47.680;9.166;2023-04-24T05:47:09;13.40;92.00
6752;DHT22;3413;47.680;9.166;2023-04-24T05:52:14;13.30;92.00
6752;DHT22;3413;47.680;9.166;2023-04-24T05:57:18;13.30;92.00
6752;DHT22;3413;47.680;9.166;2023-04-24T06:02:30;13.30;92.20
6752;DHT22;3413;47.680;9.166;2023-04-24T06:07:35;13.40;92.10
6752;DHT22;3413;47.680;9.166;2023-04-24T06:12:40;13.50;92.20
6752;DHT22;3413;47.680;9.166;2023-04-24T06:17:50;13.50;92.20
6752;DHT22;3413;47.680;9.166;2023-04-24T06:23:04;13.40;92.10
6752;DHT22;3413;47.680;9.166;2023-04-24T06:28:08;13.50;92.30
6752;DHT22;3413;47.680;9.166;2023-04-24T06:33:11;13.50;92.20
6752;DHT22;3413;47.680;9.166;2023-04-24T06:38:23;13.50;92.20
6752;DHT22;3413;47.680;9.166;2023-04-24T06:43:25;13.60;92.30
6752;DHT22;3413;47.680;9.166;2023-04-24T06:48:27;13.60;92.30
6752;DHT22;3413;47.680;9.166;2023-04-24T06:53:29;13.60;92.30
6752;DHT22;3413;47.680;9.166;2023-04-24T06:58:32;13.70;92.30
6752;DHT22;3413;47.680;9.166;2023-04-24T07:03:34;13.80;92.30
6752;DHT22;3413;47.680;9.166;2023-04-24T07:08:37;13.90;92.40
6752;DHT22;3413;47.680;9.166;2023-04-24T07:13:39;14.00;92.50
6752;DHT22;3413;47.680;9.166;2023-04-24T07:18:44;14.10;92.50
6752;DHT22;3413;47.680;9.166;2023-04-24T07:23:46;14.20;92.50
6752;DHT22;3413;47.680;9.166;2023-04-24T07:28:49;14.40;92.60
6752;DHT22;3413;47.680;9.166;2023-04-24T07:33:51;14.40;92.50
6752;DHT22;3413;47.680;9.166;2023-04-24T07:38:54;14.40;92.50
6752;DHT22;3413;47.680;9.166;2023-04-24T07:43:57;14.60;92.70
6752;DHT22;3413;47.680;9.166;2023-04-24T07:49:00;14.60;92.60
6752;DHT22;3413;47.680;9.166;2023-04-24T07:54:14;14.70;92.50
6752;DHT22;3413;47.680;9.166;2023-04-24T07:59:17;14.70;92.50
6752;DHT22;3413;47.680;9.166;2023-04-24T08:04:19;14.80;92.50
6752;DHT22;3413;47.680;9.166;2023-04-24T08:09:22;14.90;92.60
6752;DHT22;3413;47.680;9.166;2023-04-24T08:14:27;14.80;92.40
6752;DHT22;3413;47.680;9.166;2023-04-24T08:19:30;14.80;92.50
6752;DHT22;3413;47.680;9.166;2023-04-24T08:24:33;14.70;92.30
6752;DHT22;3413;47.680;9.166;2023-04-24T08:29:38;14.50;92.20
6752;DHT22;3413;47.680;9.166;2023-04-24T08:34:40;14.40;92.10
6752;DHT22;3413;47.680;9.166;2023-04-24T08:39:44;14.30;92.00
6752;DHT22;3413;47.680;9.166;2023-04-24T08:44:49;14.20;91.90
6752;DHT22;3413;47.680;9.166;2023-04-24T08:49:53;14.30;92.00
6752;DHT22;3413;47.680;9.166;2023-04-24T08:54:56;14.20;91.90
6752;DHT22;3413;47.680;9.166;2023-04-24T08:59:59;14.20;91.90
6752;DHT22;3413;47.680;9.166;2023-04-24T09:05:02;14.20;91.90
6752;DHT22;3413;47.680;9.166;2023-04-24T09:10:06;14.30;91.80
6752;DHT22;3413;47.680;9.166;2023-04-24T09:15:09;14.30;91.80
6752;DHT22;3413;47.680;9.166;2023-04-24T09:20:12;14.40;91.80
6752;DHT22;3413;47.680;9.166;2023-04-24T09:25:15;14.40;91.70
6752;DHT22;3413;47.680;9.166;2023-04-24T09:30:21;14.50;91.80
6752;DHT22;3413;47.680;9.166;2023-04-24T09:35:24;14.60;91.80
6752;DHT22;3413;47.680;9.166;2023-04-24T09:40:27;14.70;91.70
6752;DHT22;3413;47.680;9.166;2023-04-24T09:45:37;14.90;91.80
6752;DHT22;3413;47.680;9.166;2023-04-24T09:50:46;15.10;91.90
6752;DHT22;3413;47.680;9.166;2023-04-24T09:55:49;15.20;91.70
6752;DHT22;3413;47.680;9.166;2023-04-24T10:00:56;15.30;91.70
6752;DHT22;3413;47.680;9.166;2023-04-24T10:06:01;15.40;91.70
6752;DHT22;3413;47.680;9.166;2023-04-24T10:11:04;15.60;91.80
6752;DHT22;3413;47.680;9.166;2023-04-24T10:16:07;15.70;91.70
6752;DHT22;3413;47.680;9.166;2023-04-24T10:21:10;15.90;91.60
6752;DHT22;3413;47.680;9.166;2023-04-24T10:26:13;16.00;91.50
6752;DHT22;3413;47.680;9.166;2023-04-24T10:31:20;16.10;91.50
6752;DHT22;3413;47.680;9.166;2023-04-24T10:36:23;16.00;91.40
6752;DHT22;3413;47.680;9.166;2023-04-24T10:41:30;15.90;91.30
6752;DHT22;3413;47.680;9.166;2023-04-24T10:46:33;15.90;91.30
6752;DHT22;3413;47.680;9.166;2023-04-24T10:51:51;15.80;91.20
6752;DHT22;3413;47.680;9.166;2023-04-24T10:57:27;15.90;91.20
6752;DHT22;3413;47.680;9.166;2023-04-24T11:02:39;16.00;91.20
6752;DHT22;3413;47.680;9.166;2023-04-24T11:13:21;16.30;91.20
6752;DHT22;3413;47.680;9.166;2023-04-24T11:18:23;16.40;91.30
6752;DHT22;3413;47.680;9.166;2023-04-24T11:23:26;16.70;91.40
6752;DHT22;3413;47.680;9.166;2023-04-24T11:28:29;16.80;91.20
6752;DHT22;3413;47.680;9.166;2023-04-24T11:33:31;16.80;91.10
6752;DHT22;3413;47.680;9.166;2023-04-24T11:38:33;16.80;91.00
6752;DHT22;3413;47.680;9.166;2023-04-24T11:43:38;16.70;90.80
6752;DHT22;3413;47.680;9.166;2023-04-24T11:48:45;16.60;90.90
6752;DHT22;3413;47.680;9.166;2023-04-24T11:53:47;16.60;90.90
6752;DHT22;3413;47.680;9.166;2023-04-24T11:58:58;16.60;90.80
6752;DHT22;3413;47.680;9.166;2023-04-24T12:04:00;16.70;90.70
6752;DHT22;3413;47.680;9.166;2023-04-24T12:09:03;16.70;90.60
6752;DHT22;3413;47.680;9.166;2023-04-24T12:14:18;16.80;90.60
6752;DHT22;3413;47.680;9.166;2023-04-24T12:19:22;16.90;90.60
6752;DHT22;3413;47.680;9.166;2023-04-24T12:24:24;16.90;90.50
6752;DHT22;3413;47.680;9.166;2023-04-24T12:29:26;16.90;90.40
6752;DHT22;3413;47.680;9.166;2023-04-24T12:34:28;17.00;90.40
6752;DHT22;3413;47.680;9.166;2023-04-24T12:39:30;16.90;90.30
6752;DHT22;3413;47.680;9.166;2023-04-24T12:44:33;16.90;90.30
6752;DHT22;3413;47.680;9.166;2023-04-24T12:49:36;16.80;90.20
6752;DHT22;3413;47.680;9.166;2023-04-24T12:54:38;16.80;90.10
6752;DHT22;3413;47.680;9.166;2023-04-24T12:59:40;16.90;90.20
6752;DHT22;3413;47.680;9.166;2023-04-24T13:04:49;16.90;90.20
6752;DHT22;3413;47.680;9.166;2023-04-24T13:09:52;16.90;90.00
6752;DHT22;3413;47.680;9.166;2023-04-24T13:14:54;17.00;90.00
6752;DHT22;3413;47.680;9.166;2023-04-24T13:19:57;17.10;90.00
6752;DHT22;3413;47.680;9.166;2023-04-24T13:24:59;17.10;90.00
6752;DHT22;3413;47.680;9.166;2023-04-24T13:30:03;17.20;90.00
6752;DHT22;3413;47.680;9.166;2023-04-24T13:35:05;17.20;89.60
6752;DHT22;3413;47.680;9.166;2023-04-24T13:40:08;17.30;89.70
6752;DHT22;3413;47.680;9.166;2023-04-24T13:45:10;17.40;89.60
6752;DHT22;3413;47.680;9.166;2023-04-24T13:50:26;17.40;89.40
6752;DHT22;3413;47.680;9.166;2023-04-24T13:55:28;17.50;89.60
6752;DHT22;3413;47.680;9.166;2023-04-24T14:00:31;17.80;89.80
6752;DHT22;3413;47.680;9.166;2023-04-24T14:05:33;17.90;89.70
6752;DHT22;3413;47.680;9.166;2023-04-24T14:10:35;17.90;89.50
6752;DHT22;3413;47.680;9.166;2023-04-24T14:15:37;17.90;89.40
6752;DHT22;3413;47.680;9.166;2023-04-24T14:20:40;17.80;89.20
6752;DHT22;3413;47.680;9.166;2023-04-24T14:25:42;17.80;89.20
6752;DHT22;3413;47.680;9.166;2023-04-24T14:30:44;17.80;89.10
6752;DHT22;3413;47.680;9.166;2023-04-24T14:35:46;17.90;89.00
6752;DHT22;3413;47.680;9.166;2023-04-24T14:40:49;17.90;88.90
6752;DHT22;3413;47.680;9.166;2023-04-24T14:45:54;17.90;88.90
6752;DHT22;3413;47.680;9.166;2023-04-24T14:50:56;17.80;88.70
6752;DHT22;3413;47.680;9.166;2023-04-24T14:55:58;17.70;88.80
6752;DHT22;3413;47.680;9.166;2023-04-24T15:01:00;17.80;88.90
6752;DHT22;3413;47.680;9.166;2023-04-24T15:06:02;17.90;88.90
6752;DHT22;3413;47.680;9.166;2023-04-24T15:11:04;17.90;88.50
6752;DHT22;3413;47.680;9.166;2023-04-24T15:16:06;17.70;88.40
6752;DHT22;3413;47.680;9.166;2023-04-24T15:21:08;17.60;88.20
6752;DHT22;3413;47.680;9.166;2023-04-24T15:26:11;17.40;87.90
6752;DHT22;3413;47.680;9.166;2023-04-24T15:31:13;17.10;87.80
6752;DHT22;3413;47.680;9.166;2023-04-24T15:36:16;17.00;87.60
6752;DHT22;3413;47.680;9.166;2023-04-24T15:41:18;17.10;87.90
6752;DHT22;3413;47.680;9.166;2023-04-24T15:46:20;17.30;87.90
6752;DHT22;3413;47.680;9.166;2023-04-24T15:51:23;17.40;87.70
6752;DHT22;3413;47.680;9.166;2023-04-24T15:56:25;17.40;87.60
6752;DHT22;3413;47.680;9.166;2023-04-24T16:01:27;17.40;87.70
6752;DHT22;3413;47.680;9.166;2023-04-24T16:06:29;17.50;87.60
6752;DHT22;3413;47.680;9.166;2023-04-24T16:11:32;17.50;87.40
6752;DHT22;3413;47.680;9.166;2023-04-24T16:16:34;17.50;87.20
6752;DHT22;3413;47.680;9.166;2023-04-24T16:21:36;17.40;87.30
6752;DHT22;3413;47.680;9.166;2023-04-24T16:26:38;17.40;87.30
6752;DHT22;3413;47.680;9.166;2023-04-24T16:31:41;17.50;87.40
6752;DHT22;3413;47.680;9.166;2023-04-24T16:36:43;17.70;87.70
6752;DHT22;3413;47.680;9.166;2023-04-24T16:41:47;17.80;87.70
6752;DHT22;3413;47.680;9.166;2023-04-24T16:46:50;18.00;87.90
6752;DHT22;3413;47.680;9.166;2023-04-24T16:51:52;18.00;87.90
6752;DHT22;3413;47.680;9.166;2023-04-24T16:56:57;18.00;88.70
6752;DHT22;3413;47.680;9.166;2023-04-24T17:01:59;18.00;87.70
6752;DHT22;3413;47.680;9.166;2023-04-24T17:07:01;17.80;87.70
6752;DHT22;3413;47.680;9.166;2023-04-24T17:12:03;17.70;87.50
6752;DHT22;3413;47.680;9.166;2023-04-24T17:17:05;17.50;87.20
6752;DHT22;3413;47.680;9.166;2023-04-24T17:22:07;17.40;86.90
6752;DHT22;3413;47.680;9.166;2023-04-24T17:27:10;17.20;86.80
6752;DHT22;3413;47.680;9.166;2023-04-24T17:32:16;17.20;87.10
6752;DHT22;3413;47.680;9.166;2023-04-24T17:37:20;17.20;87.10
6752;DHT22;3413;47.680;9.166;2023-04-24T17:42:28;17.30;87.20
6752;DHT22;3413;47.680;9.166;2023-04-24T17:47:31;17.30;87.10
6752;DHT22;3413;47.680;9.166;2023-04-24T17:52:34;17.20;86.90
6752;DHT22;3413;47.680;9.166;2023-04-24T17:57:46;17.10;86.70
6752;DHT22;3413;47.680;9.166;2023-04-24T18:02:49;17.10;86.60
6752;DHT22;3413;47.680;9.166;2023-04-24T18:07:57;17.00;86.30
6752;DHT22;3413;47.680;9.166;2023-04-24T18:13:00;16.80;86.20
6752;DHT22;3413;47.680;9.166;2023-04-24T18:18:02;16.80;86.30
6752;DHT22;3413;47.680;9.166;2023-04-24T18:23:04;16.70;86.10
6752;DHT22;3413;47.680;9.166;2023-04-24T18:28:07;16.70;86.30
6752;DHT22;3413;47.680;9.166;2023-04-24T18:33:08;16.60;86.10
6752;DHT22;3413;47.680;9.166;2023-04-24T18:38:11;16.50;85.80
6752;DHT22;3413;47.680;9.166;2023-04-24T18:43:12;16.40;86.40
6752;DHT22;3413;47.680;9.166;2023-04-24T18:48:14;16.20;85.60
6752;DHT22;3413;47.680;9.166;2023-04-24T18:53:16;16.20;85.60
6752;DHT22;3413;47.680;9.166;2023-04-24T18:58:19;16.10;85.40
6752;DHT22;3413;47.680;9.166;2023-04-24T19:03:21;16.10;85.40
6752;DHT22;3413;47.680;9.166;2023-04-24T19:08:23;16.20;85.30
6752;DHT22;3413;47.680;9.166;2023-04-24T19:13:25;16.00;85.10
6752;DHT22;3413;47.680;9.166;2023-04-24T19:18:27;16.00;85.00
6752;DHT22;3413;47.680;9.166;2023-04-24T19:23:30;15.90;85.70
6752;DHT22;3413;47.680;9.166;2023-04-24T19:28:33;15.80;84.80
6752;DHT22;3413;47.680;9.166;2023-04-24T19:33:47;15.70;84.80
6752;DHT22;3413;47.680;9.166;2023-04-24T19:38:52;15.70;84.80
6752;DHT22;3413;47.680;9.166;2023-04-24T19:43:54;15.60;84.40
6752;DHT22;3413;47.680;9.166;2023-04-24T19:48:56;15.50;84.30
6752;DHT22;3413;47.680;9.166;2023-04-24T19:53:58;15.40;84.80
6752;DHT22;3413;47.680;9.166;2023-04-24T19:59:00;15.30;84.80
6752;DHT22;3413;47.680;9.166;2023-04-24T20:04:02;15.20;84.00
6752;DHT22;3413;47.680;9.166;2023-04-24T20:09:07;15.20;84.20
6752;DHT22;3413;47.680;9.166;2023-04-24T20:14:09;15.10;84.10
6752;DHT22;3413;47.680;9.166;2023-04-24T20:19:11;15.10;84.10
6752;DHT22;3413;47.680;9.166;2023-04-24T20:24:14;15.10;84.10
6752;DHT22;3413;47.680;9.166;2023-04-24T20:29:17;15.00;84.10
6752;DHT22;3413;47.680;9.166;2023-04-24T20:34:20;14.90;84.10
6752;DHT22;3413;47.680;9.166;2023-04-24T20:39:22;14.70;83.90
6752;DHT22;3413;47.680;9.166;2023-04-24T20:44:23;14.70;83.90
6752;DHT22;3413;47.680;9.166;2023-04-24T20:49:25;14.70;83.90
6752;DHT22;3413;47.680;9.166;2023-04-24T20:54:27;14.60;83.80
6752;DHT22;3413;47.680;9.166;2023-04-24T20:59:30;14.50;83.80
6752;DHT22;3413;47.680;9.166;2023-04-24T21:04:32;14.60;83.80
6752;DHT22;3413;47.680;9.166;2023-04-24T21:09:38;14.50;83.80
6752;DHT22;3413;47.680;9.166;2023-04-24T21:14:39;14.60;83.80
6752;DHT22;3413;47.680;9.166;2023-04-24T21:19:41;14.50;83.70
6752;DHT22;3413;47.680;9.166;2023-04-24T21:24:43;14.50;83.70
6752;DHT22;3413;47.680;9.166;2023-04-24T21:29:45;14.40;83.60
6752;DHT22;3413;47.680;9.166;2023-04-24T21:34:47;14.40;83.70
6752;DHT22;3413;47.680;9.166;2023-04-24T21:39:49;14.40;83.70
6752;DHT22;3413;47.680;9.166;2023-04-24T21:44:51;14.30;84.40
6752;DHT22;3413;47.680;9.166;2023-04-24T21:49:53;14.30;83.70
6752;DHT22;3413;47.680;9.166;2023-04-24T21:54:55;14.20;83.60
6752;DHT22;3413;47.680;9.166;2023-04-24T21:59:57;14.10;83.60
6752;DHT22;3413;47.680;9.166;2023-04-24T22:04:59;14.10;83.60
6752;DHT22;3413;47.680;9.166;2023-04-24T22:10:05;14.10;83.80
6752;DHT22;3413;47.680;9.166;2023-04-24T22:15:07;14.10;83.80
6752;DHT22;3413;47.680;9.166;2023-04-24T22:20:10;14.20;83.80
6752;DHT22;3413;47.680;9.166;2023-04-24T22:25:12;14.10;83.80
6752;DHT22;3413;47.680;9.166;2023-04-24T22:30:14;14.00;83.80
6752;DHT22;3413;47.680;9.166;2023-04-24T22:35:16;14.00;83.80
6752;DHT22;3413;47.680;9.166;2023-04-24T22:40:19;14.10;83.90
6752;DHT22;3413;47.680;9.166;2023-04-24T22:45:24;14.10;83.80
6752;DHT22;3413;47.680;9.166;2023-04-24T22:50:27;14.10;83.90
6752;DHT22;3413;47.680;9.166;2023-04-24T22:55:29;14.00;83.80
6752;DHT22;3413;47.680;9.166;2023-04-24T23:00:32;13.90;83.80
6752;DHT22;3413;47.680;9.166;2023-04-24T23:05:34;13.90;84.00
6752;DHT22;3413;47.680;9.166;2023-04-24T23:10:36;13.90;83.90
6752;DHT22;3413;47.680;9.166;2023-04-24T23:15:38;14.00;84.00
6752;DHT22;3413;47.680;9.166;2023-04-24T23:20:41;14.00;83.90
6752;DHT22;3413;47.680;9.166;2023-04-24T23:25:43;13.90;84.00
6752;DHT22;3413;47.680;9.166;2023-04-24T23:30:45;13.80;84.10
6752;DHT22;3413;47.680;9.166;2023-04-24T23:35:47;13.80;84.00
6752;DHT22;3413;47.680;9.166;2023-04-24T23:40:49;13.70;83.80
6752;DHT22;3413;47.680;9.166;2023-04-24T23:45:52;13.70;84.00
6752;DHT22;3413;47.680;9.166;2023-04-24T23:50:54;13.60;83.90
6752;DHT22;3413;47.680;9.166;2023-04-24T23:55:56;13.70;84.00
